Sagamore, MA (02561)

10:59 AM EDT on August 27, 2016 (GMT -0400)
Sagamore Beach | | Change Station

Elev 13 ft 41.79 °N, 70.52 °W | Updated 12 seconds ago

Clear
Clear
72.7 °F
Feels Like 74 °F
N
2.0
Wind Variable Wind from NE
Gusts 4.9 mph

Today
High -- | Low -- °F
--% Chance of Precip.
Yesterday
High -- | Low -- °F
Precip. -- in
Pressure 30.18 in
Visibility 10.0 miles
Clouds Clear
Heat Index 74 °F
Dew Point 64 °F
Humidity 75%
Rainfall 0.00 in
Snow Depth Not available.
6:03 AM 7:22 PM
Waning Crescent, 24% visible
METAR KFMH 271455Z 04009G17KT 10SM SKC 27/15 A3018 RMK AO2 PWINO FZRANO TSNO .
Pressure 30.18 in
Visibility 10.0 miles
Clouds Clear
Heat Index 74 °F
Dew Point 64 °F
Humidity 75%
Rainfall 0.00 in
Snow Depth Not available.
6:03 AM 7:22 PM
Waning Crescent, 24% visible
METAR KFMH 271455Z 04009G17KT 10SM SKC 27/15 A3018 RMK AO2 PWINO FZRANO TSNO .

10-Day Weather Forecast

Almanac

Astronomy

Aug. 27, 2016 Rise Set
Actual Time
Civil Twilight
Nautical Twilight
Astronomical Twilight
Moon
Length of Visible Light
Length of Day
Tomorrow will be .
, % of the Moon is Illuminated

Today's Extremes

State Highs State Lows

Community

WunderPhotos

Upload Photos

1,935,344 photos uploaded!

WunderBlog® & News

Nearby

Air Quality

  Air Quality AQ Index Pollutant
Not available.

Snow Depth

Station Depth Elevation

Earthquake Activity

City Distance Mag. Time & Date
Minimum magnitude displayed is 2.5.

Coastal Water Temperatures

Place Temperature

Stations

Nearby Weather Stations

Station Location Temp. Windchill Dew Point Humidity Wind Precip. Elev Updated Type
                   

Watches & Warnings

There are currently no watches in effect.